CheckWX is a tool to help pilots better visualize weather data.  It is not intended as a substitute for an official pre-flight weather briefing.

00:59:55 UTC

ETHA METAR
Altenstadt Army Airfield Airport
Altenstadt, Germany
Current

40 mins ago

ETHA 240020Z AUTO 26004KT //// // ////// 02/00 Q1025 ///
Observed
Mar-24 @ 00:20 UTC
Wind
  • 260° at 4 KTS
Visibility
Temperature
C / 36°F
Dewpoint
C / 32°F
Humidity
87%
Altimeter
30.27" Hg
Pressure
1024.92 hPa
Previous

2 hours ago

ETHA 232320Z AUTO 26003KT //// // ////// 04/M00 Q1025 ///
Observed
Mar-23 @ 23:20 UTC
Wind
  • 260° at 3 KTS
Visibility
Temperature
C / 39°F
Dewpoint
C / 32°F
Humidity
75%
Altimeter
30.27" Hg
Pressure
1024.92 hPa
Previous

3 hours ago

ETHA 232220Z AUTO 25003KT //// // ////// 04/00 Q1026 ///
Observed
Mar-23 @ 22:20 UTC
Wind
  • 250° at 3 KTS
Visibility
Temperature
C / 39°F
Dewpoint
C / 32°F
Humidity
75%
Altimeter
30.3" Hg
Pressure
1025.92 hPa